Time;durP1;ratioP1;P1;durP2;ratioP2;P2;SDS_P1;SDS_P2;PMS_P1;PMS_P2;Temp;Humidity;BMP_temperature;BMP_pressure;BME280_temperature;BME280_humidity;BME280_pressure;Samples;Min_cycle;Max_cycle;Signal;HPM_P1;HPM_P2
2023/10/20 00:00:32;;;;;;;30.05;17.00;;;9.30;99.90;;;;;;5114421;28;20079;-67
2023/10/20 00:02:59;;;;;;;30.65;17.50;;;9.30;99.90;;;;;;5095989;28;20142;-65
2023/10/20 00:05:26;;;;;;;30.88;18.38;;;9.50;99.90;;;;;;5079173;28;20081;-67
2023/10/20 00:07:53;;;;;;;29.60;17.05;;;9.30;99.90;;;;;;5075019;28;20048;-64
2023/10/20 00:10:20;;;;;;;33.35;18.35;;;9.40;99.90;;;;;;5075598;28;20048;-66
2023/10/20 00:12:46;;;;;;;33.65;17.80;;;9.40;99.90;;;;;;5075459;28;20064;-65
2023/10/20 00:15:15;;;;;;;34.42;18.48;;;9.20;99.90;;;;;;5089856;28;20077;-66
2023/10/20 00:17:42;;;;;;;32.72;18.08;;;9.40;99.90;;;;;;5094827;28;20056;-65
2023/10/20 00:20:12;;;;;;;35.85;17.35;;;9.30;99.90;;;;;;5095734;28;20047;-64
2023/10/20 00:22:40;;;;;;;33.83;20.02;;;9.20;99.90;;;;;;5078509;28;20040;-67
2023/10/20 00:25:07;;;;;;;31.83;17.75;;;9.40;99.90;;;;;;5064827;28;20542;-66
2023/10/20 00:27:33;;;;;;;29.33;17.35;;;9.30;99.90;;;;;;5074513;28;20055;-64
2023/10/20 00:29:59;;;;;;;27.92;17.40;;;9.30;99.90;;;;;;5075254;28;20055;-65
2023/10/20 00:32:26;;;;;;;33.88;18.30;;;9.20;99.90;;;;;;5074783;28;20406;-64
2023/10/20 00:34:52;;;;;;;32.70;17.55;;;9.30;99.90;;;;;;5069700;28;20065;-65
2023/10/20 00:37:18;;;;;;;31.90;17.52;;;9.30;99.90;;;;;;5094838;28;20043;-66
2023/10/20 00:39:45;;;;;;;32.50;18.35;;;9.20;99.90;;;;;;5078574;28;20440;-65
2023/10/20 00:42:12;;;;;;;32.50;18.35;;;9.30;99.90;;;;;;5078533;28;20048;-64
2023/10/20 00:44:38;;;;;;;31.65;17.52;;;9.30;99.90;;;;;;5068034;28;20376;-63
2023/10/20 00:47:05;;;;;;;39.08;20.63;;;9.20;99.90;;;;;;5057785;28;20060;-64
2023/10/20 00:49:32;;;;;;;37.75;18.58;;;9.30;99.90;;;;;;5074931;28;20048;-65
2023/10/20 00:51:59;;;;;;;39.30;18.80;;;9.10;99.90;;;;;;5074401;28;20063;-64
2023/10/20 00:54:26;;;;;;;31.92;17.08;;;9.10;99.90;;;;;;5065949;28;20070;-67
2023/10/20 00:56:53;;;;;;;40.50;18.83;;;9.10;99.90;;;;;;5094605;28;20104;-65
2023/10/20 00:59:19;;;;;;;37.58;18.77;;;9.10;99.90;;;;;;5078311;28;20055;-63
2023/10/20 01:01:45;;;;;;;39.85;18.85;;;9.20;99.90;;;;;;5095047;28;20047;-65
2023/10/20 01:04:12;;;;;;;39.78;19.85;;;9.20;99.90;;;;;;5088756;28;20051;-64
2023/10/20 01:06:39;;;;;;;38.55;19.63;;;9.00;99.90;;;;;;5073892;28;20052;-65
2023/10/20 01:09:09;;;;;;;33.88;18.88;;;9.10;99.90;;;;;;5074851;28;20059;-65
2023/10/20 01:11:37;;;;;;;32.25;17.40;;;9.00;99.90;;;;;;5057716;28;20044;-63
2023/10/20 01:14:03;;;;;;;35.13;16.92;;;9.20;99.90;;;;;;5078512;28;20046;-63
2023/10/20 01:16:29;;;;;;;32.25;17.75;;;9.00;99.90;;;;;;5077646;28;20054;-65
2023/10/20 01:18:56;;;;;;;41.22;18.88;;;9.00;99.90;;;;;;5094118;28;20042;-64
2023/10/20 01:21:22;;;;;;;43.03;22.08;;;9.20;99.90;;;;;;5094111;28;20536;-67
2023/10/20 01:23:52;;;;;;;34.30;17.58;;;9.10;99.90;;;;;;5075361;28;20108;-66
2023/10/20 01:26:18;;;;;;;37.15;17.75;;;9.00;99.90;;;;;;5074516;28;20070;-65
2023/10/20 01:28:44;;;;;;;36.35;19.65;;;9.10;99.90;;;;;;5074033;28;20325;-63
2023/10/20 01:31:10;;;;;;;32.75;17.02;;;9.00;99.90;;;;;;5073839;28;20101;-65
2023/10/20 01:33:36;;;;;;;34.85;19.13;;;9.00;99.90;;;;;;5074451;28;20040;-67
2023/10/20 01:36:03;;;;;;;35.15;16.85;;;9.20;99.90;;;;;;5077048;28;20055;-64
2023/10/20 01:38:29;;;;;;;34.80;18.33;;;9.10;99.90;;;;;;5093971;28;20100;-64
2023/10/20 01:40:56;;;;;;;33.53;18.15;;;9.10;99.90;;;;;;5094008;28;20048;-64
2023/10/20 01:43:22;;;;;;;37.25;18.48;;;9.20;99.90;;;;;;5093881;28;20121;-65
2023/10/20 01:45:49;;;;;;;30.63;17.92;;;9.00;99.90;;;;;;5075057;28;20059;-65
2023/10/20 01:48:15;;;;;;;30.48;17.50;;;9.20;99.90;;;;;;5073574;28;20067;-64
2023/10/20 01:50:41;;;;;;;33.53;16.17;;;9.00;99.90;;;;;;5056961;28;20057;-65
2023/10/20 01:53:07;;;;;;;30.83;16.92;;;9.10;99.90;;;;;;5073714;28;20044;-64
2023/10/20 01:55:34;;;;;;;32.78;15.88;;;9.00;99.90;;;;;;5072432;28;20490;-64
2023/10/20 01:58:00;;;;;;;33.08;17.17;;;9.00;99.90;;;;;;5076393;28;20048;-66
2023/10/20 02:00:26;;;;;;;32.75;16.02;;;9.00;99.90;;;;;;5094040;28;20352;-64
2023/10/20 02:02:53;;;;;;;34.92;18.42;;;9.00;99.90;;;;;;5093613;28;20039;-65
2023/10/20 02:05:19;;;;;;;34.40;17.05;;;8.90;99.90;;;;;;5079282;28;20048;-67
2023/10/20 02:07:45;;;;;;;35.90;18.05;;;8.90;99.90;;;;;;5073198;28;20052;-65
2023/10/20 02:10:12;;;;;;;33.42;16.58;;;9.00;99.90;;;;;;5073106;28;20360;-65
2023/10/20 02:12:38;;;;;;;37.78;17.83;;;8.90;99.90;;;;;;5073634;28;20048;-64
2023/10/20 02:15:06;;;;;;;33.83;16.95;;;9.00;99.90;;;;;;5068831;28;20054;-65
2023/10/20 02:17:32;;;;;;;34.33;17.02;;;9.00;99.90;;;;;;5076508;28;20043;-66
2023/10/20 02:19:59;;;;;;;33.50;16.67;;;9.00;99.90;;;;;;5093410;28;20062;-63
2023/10/20 02:22:25;;;;;;;34.88;17.67;;;8.80;99.90;;;;;;5093600;28;20065;-65
2023/10/20 02:24:52;;;;;;;32.33;16.75;;;8.90;99.90;;;;;;5065539;28;20044;-65
2023/10/20 02:27:19;;;;;;;35.05;18.23;;;8.90;99.90;;;;;;5056292;28;20052;-64
2023/10/20 02:29:46;;;;;;;35.75;17.55;;;8.80;99.90;;;;;;5056735;28;20769;-64
2023/10/20 02:32:12;;;;;;;31.85;18.85;;;9.00;99.90;;;;;;5072951;28;20051;-64
2023/10/20 02:34:38;;;;;;;32.00;15.90;;;8.90;99.90;;;;;;5075736;28;20040;-65
2023/10/20 02:37:04;;;;;;;32.30;15.70;;;8.70;99.90;;;;;;5072187;28;20040;-65
2023/10/20 02:39:31;;;;;;;30.90;17.58;;;8.70;99.90;;;;;;5072301;28;20052;-64
2023/10/20 02:41:59;;;;;;;27.15;16.25;;;8.70;99.90;;;;;;5055812;28;20054;-66
2023/10/20 02:44:27;;;;;;;29.17;14.65;;;8.80;99.90;;;;;;5075251;28;20431;-64
2023/10/20 02:46:54;;;;;;;37.95;18.05;;;8.90;99.90;;;;;;5088753;28;20113;-65
2023/10/20 02:49:20;;;;;;;39.75;18.48;;;8.80;99.90;;;;;;5081384;28;20044;-68
2023/10/20 02:51:47;;;;;;;34.47;17.63;;;8.70;99.90;;;;;;5069152;28;20057;-66
2023/10/20 02:54:13;;;;;;;29.38;16.30;;;8.70;99.90;;;;;;5073474;28;20059;-66
2023/10/20 02:56:40;;;;;;;29.02;17.20;;;8.70;99.90;;;;;;5088422;28;20048;-64
2023/10/20 02:59:06;;;;;;;35.72;18.38;;;8.80;99.90;;;;;;5089116;28;20052;-66
2023/10/20 03:01:32;;;;;;;35.15;17.10;;;8.70;99.90;;;;;;5082833;28;20047;-65
2023/10/20 03:03:59;;;;;;;34.95;19.15;;;8.80;99.90;;;;;;5071539;28;20052;-65
2023/10/20 03:06:26;;;;;;;35.90;19.17;;;8.90;99.90;;;;;;5087191;28;20060;-65
2023/10/20 03:08:52;;;;;;;37.22;17.33;;;8.70;99.90;;;;;;5089149;28;20048;-65
2023/10/20 03:11:18;;;;;;;35.78;16.95;;;8.70;99.90;;;;;;5089044;28;20052;-66
2023/10/20 03:13:45;;;;;;;37.15;19.77;;;8.90;99.90;;;;;;5088052;28;20062;-64
2023/10/20 03:16:11;;;;;;;34.25;18.70;;;8.90;99.90;;;;;;5051789;28;20479;-65
2023/10/20 03:18:38;;;;;;;43.63;17.95;;;8.80;99.90;;;;;;5068268;28;20453;-64
2023/10/20 03:21:07;;;;;;;37.00;17.27;;;8.70;99.90;;;;;;5051828;28;20366;-64
2023/10/20 03:23:33;;;;;;;39.95;19.00;;;8.70;99.90;;;;;;5052029;28;20546;-66
2023/10/20 03:25:59;;;;;;;36.63;19.40;;;8.80;99.90;;;;;;5069162;28;20499;-65
2023/10/20 03:28:26;;;;;;;33.75;18.80;;;8.80;99.90;;;;;;5068279;28;20075;-64
2023/10/20 03:30:53;;;;;;;37.05;18.15;;;8.80;99.90;;;;;;5068227;28;20044;-65
2023/10/20 03:33:19;;;;;;;40.17;17.98;;;8.80;99.90;;;;;;5068423;28;20053;-66
2023/10/20 03:35:46;;;;;;;34.72;16.45;;;8.70;99.90;;;;;;5085484;28;20062;-66
2023/10/20 03:38:12;;;;;;;33.58;16.27;;;8.80;99.90;;;;;;5088346;28;20113;-66
2023/10/20 03:40:40;;;;;;;37.85;16.75;;;8.60;99.90;;;;;;5088601;28;20040;-65
2023/10/20 03:43:10;;;;;;;38.20;18.20;;;8.70;99.90;;;;;;5091935;28;20047;-65
2023/10/20 03:45:41;;;;;;;37.72;17.67;;;8.80;99.90;;;;;;5091091;28;20051;-65
2023/10/20 03:48:09;;;;;;;32.08;17.02;;;8.80;99.90;;;;;;5112422;28;20132;-64
2023/10/20 03:50:38;;;;;;;30.98;17.27;;;8.60;99.90;;;;;;5111860;28;20077;-64
2023/10/20 03:53:05;;;;;;;32.67;17.50;;;8.60;99.90;;;;;;5112277;28;20051;-64
2023/10/20 03:55:33;;;;;;;31.00;17.75;;;8.80;99.90;;;;;;5079384;28;20078;-65
2023/10/20 03:58:00;;;;;;;33.15;17.23;;;8.80;99.90;;;;;;5091530;28;20040;-64
2023/10/20 04:00:29;;;;;;;31.35;18.30;;;8.70;99.90;;;;;;5091689;28;20112;-65
2023/10/20 04:02:56;;;;;;;30.38;17.55;;;8.60;99.90;;;;;;5092247;28;20492;-65
2023/10/20 04:05:24;;;;;;;35.75;17.85;;;8.80;99.90;;;;;;5105911;28;20047;-65
2023/10/20 04:07:50;;;;;;;32.72;16.75;;;8.60;99.90;;;;;;5111730;28;20043;-66
2023/10/20 04:10:18;;;;;;;33.25;16.70;;;8.80;99.90;;;;;;5095237;28;20055;-64
2023/10/20 04:12:45;;;;;;;33.63;19.02;;;8.70;99.90;;;;;;5112273;28;20062;-65
2023/10/20 04:15:32;;;;;;;36.55;19.85;;;8.60;99.90;;;;;;5110733;28;20535;-64
2023/10/20 04:17:58;;;;;;;31.25;16.27;;;8.60;99.90;;;;;;5095715;27;20055;-64
2023/10/20 04:20:25;;;;;;;29.25;17.20;;;8.60;99.90;;;;;;5115492;27;20043;-65
2023/10/20 04:22:52;;;;;;;31.63;17.02;;;8.70;99.90;;;;;;5115706;27;20341;-66
2023/10/20 04:25:20;;;;;;;29.95;16.58;;;8.70;99.90;;;;;;5102012;28;20123;-65
2023/10/20 04:27:50;;;;;;;34.38;17.73;;;8.70;99.90;;;;;;5094966;28;20142;-65
2023/10/20 04:52:07;;;;;;;32.85;17.52;;;8.50;99.90;;;;;;5091001;28;20055;-65
2023/10/20 05:08:04;;;;;;;32.88;16.30;;;8.60;99.90;;;;;;5080606;28;20047;-65
2023/10/20 05:10:30;;;;;;;28.45;14.75;;;8.60;99.90;;;;;;5081773;28;20372;-65
2023/10/20 05:12:57;;;;;;;31.23;15.40;;;8.60;99.90;;;;;;5079872;28;20052;-65
2023/10/20 05:15:23;;;;;;;34.13;16.88;;;8.40;99.90;;;;;;5082135;28;20434;-64
2023/10/20 05:17:50;;;;;;;25.52;14.48;;;8.50;99.90;;;;;;5070520;28;20055;-67
2023/10/20 05:20:23;;;;;;;26.10;15.43;;;8.60;99.90;;;;;;5072988;28;20125;-66
2023/10/20 05:22:50;;;;;;;30.58;16.17;;;8.60;99.90;;;;;;5090583;28;20054;-66
2023/10/20 05:25:17;;;;;;;30.35;16.10;;;8.50;99.90;;;;;;5084076;28;20044;-66
2023/10/20 05:27:44;;;;;;;32.67;17.40;;;8.40;99.90;;;;;;5071248;28;20048;-65
2023/10/20 05:30:11;;;;;;;32.65;18.70;;;8.40;99.90;;;;;;5086277;28;20472;-64
2023/10/20 05:32:38;;;;;;;29.80;16.88;;;8.40;99.90;;;;;;5087317;28;20052;-64
2023/10/20 05:35:08;;;;;;;26.70;15.80;;;8.60;99.90;;;;;;5090920;28;20052;-66
2023/10/20 05:37:35;;;;;;;31.27;16.80;;;8.50;99.90;;;;;;5072276;28;20048;-66
2023/10/20 05:40:02;;;;;;;25.95;15.55;;;8.60;99.90;;;;;;5086250;28;20048;-68
2023/10/20 05:42:29;;;;;;;28.15;16.08;;;8.50;99.90;;;;;;5091315;28;20051;-65
2023/10/20 05:47:41;;;;;;;29.67;16.35;;;8.50;99.90;;;;;;5085325;28;20452;-64
2023/10/20 05:50:08;;;;;;;31.33;18.35;;;8.40;99.90;;;;;;5093011;28;20461;-68
2023/10/20 05:52:35;;;;;;;26.75;15.02;;;8.60;99.90;;;;;;5091241;28;20081;-65
2023/10/20 05:55:03;;;;;;;23.52;15.00;;;8.40;99.90;;;;;;5103224;27;20058;-66
2023/10/20 05:57:30;;;;;;;29.88;16.42;;;8.60;99.90;;;;;;5110871;27;20051;-66
2023/10/20 05:59:59;;;;;;;29.75;15.77;;;8.50;99.90;;;;;;5091166;28;20043;-65
2023/10/20 06:02:25;;;;;;;27.27;15.05;;;8.40;99.90;;;;;;5075914;28;20036;-66
2023/10/20 06:04:52;;;;;;;26.40;16.02;;;8.40;99.90;;;;;;5100684;27;20406;-65
2023/10/20 06:07:18;;;;;;;25.55;14.63;;;8.60;99.90;;;;;;5101599;28;20114;-66
2023/10/20 06:09:44;;;;;;;26.60;16.13;;;8.40;99.90;;;;;;5088787;28;20044;-65
2023/10/20 06:12:12;;;;;;;27.52;16.17;;;8.60;99.90;;;;;;5083329;28;20455;-64
2023/10/20 06:14:38;;;;;;;26.40;16.48;;;8.50;99.90;;;;;;5099025;27;20043;-67
2023/10/20 06:17:04;;;;;;;25.98;16.30;;;8.50;99.90;;;;;;5095474;27;20046;-65
2023/10/20 06:19:31;;;;;;;25.90;15.10;;;8.40;99.90;;;;;;5082636;28;20096;-67
2023/10/20 06:21:57;;;;;;;22.10;14.10;;;8.40;99.90;;;;;;5092772;28;20052;-66
2023/10/20 06:24:24;;;;;;;26.20;14.50;;;8.30;99.90;;;;;;5097617;27;20046;-66
2023/10/20 06:26:50;;;;;;;24.65;15.10;;;8.50;99.90;;;;;;5113164;27;20062;-65
2023/10/20 06:29:42;;;;;;;25.55;15.48;;;8.40;99.90;;;;;;5102785;28;20050;-65
2023/10/20 06:32:24;;;;;;;24.73;12.88;;;8.50;99.90;;;;;;5091075;28;20040;-66
2023/10/20 06:34:53;;;;;;;25.48;14.45;;;8.50;99.90;;;;;;5089714;28;20047;-67
2023/10/20 06:37:28;;;;;;;24.27;14.15;;;8.40;99.90;;;;;;5092256;28;20054;-66
2023/10/20 06:39:55;;;;;;;21.33;15.07;;;8.50;99.90;;;;;;5081945;28;20052;-67
2023/10/20 06:42:24;;;;;;;19.90;12.35;;;8.30;99.90;;;;;;5074889;28;20403;-67
2023/10/20 06:44:50;;;;;;;22.42;13.27;;;8.30;99.90;;;;;;5077272;28;20054;-67
2023/10/20 06:47:17;;;;;;;24.45;15.55;;;8.40;99.90;;;;;;5075665;28;20523;-65
2023/10/20 06:49:44;;;;;;;19.85;13.23;;;8.50;99.90;;;;;;5091895;28;20035;-66
2023/10/20 06:52:10;;;;;;;24.33;14.70;;;8.50;99.90;;;;;;5091988;28;20075;-69
2023/10/20 06:54:37;;;;;;;20.35;12.55;;;8.30;99.90;;;;;;5092361;27;20057;-69
2023/10/20 06:57:03;;;;;;;17.30;12.38;;;8.40;99.90;;;;;;5105107;28;20048;-66
2023/10/20 06:59:29;;;;;;;18.60;12.18;;;8.30;99.90;;;;;;5083635;27;20039;-67
2023/10/20 07:02:00;;;;;;;22.20;13.13;;;8.20;99.90;;;;;;5077866;28;20055;-67
2023/10/20 07:04:27;;;;;;;21.05;13.60;;;8.30;99.90;;;;;;5102562;28;20047;-66
2023/10/20 07:06:53;;;;;;;22.20;12.80;;;8.50;99.90;;;;;;5077235;28;20056;-66
2023/10/20 07:09:20;;;;;;;21.92;13.45;;;8.40;99.90;;;;;;5093611;28;20054;-70
2023/10/20 07:11:48;;;;;;;19.50;13.50;;;8.30;99.90;;;;;;5097615;27;20061;-65
2023/10/20 07:14:14;;;;;;;22.63;12.98;;;8.30;99.90;;;;;;5111115;28;20050;-65
2023/10/20 07:16:40;;;;;;;16.33;11.00;;;8.40;99.90;;;;;;5094274;28;20047;-67
2023/10/20 07:19:07;;;;;;;19.13;11.25;;;8.20;99.90;;;;;;5076919;28;20058;-68
2023/10/20 07:21:34;;;;;;;17.77;11.45;;;8.20;99.90;;;;;;5094152;28;20062;-67
2023/10/20 07:24:03;;;;;;;19.55;11.75;;;8.30;99.90;;;;;;5094723;28;20059;-68
2023/10/20 07:26:30;;;;;;;14.95;9.52;;;8.20;99.90;;;;;;5114397;28;20076;-66
2023/10/20 07:28:56;;;;;;;16.15;10.73;;;8.20;99.90;;;;;;5109595;28;20047;-64
2023/10/20 07:31:23;;;;;;;15.05;9.95;;;8.30;99.90;;;;;;5093945;28;20063;-65
2023/10/20 07:33:49;;;;;;;15.50;10.30;;;8.30;99.90;;;;;;5093982;28;20059;-64
2023/10/20 07:36:16;;;;;;;14.65;8.93;;;8.20;99.90;;;;;;5094060;28;20054;-64
2023/10/20 07:38:43;;;;;;;11.43;7.93;;;8.10;99.90;;;;;;5093566;28;20483;-67
2023/10/20 07:41:12;;;;;;;10.35;8.15;;;8.00;99.90;;;;;;5093973;28;20051;-66
2023/10/20 07:43:39;;;;;;;9.80;7.72;;;8.10;99.90;;;;;;5093345;28;20048;-67
2023/10/20 07:46:06;;;;;;;12.13;9.15;;;8.20;99.90;;;;;;5111955;28;20070;-66
2023/10/20 07:48:33;;;;;;;10.18;8.68;;;8.20;99.90;;;;;;5091580;28;20056;-67
2023/10/20 07:50:59;;;;;;;10.43;7.25;;;8.10;99.90;;;;;;5073732;28;20059;-66
2023/10/20 07:53:26;;;;;;;10.13;7.47;;;8.10;99.90;;;;;;5095498;28;20047;-65
2023/10/20 07:55:52;;;;;;;12.27;8.63;;;8.10;99.90;;;;;;5113655;27;20043;-65
2023/10/20 07:58:19;;;;;;;10.95;7.85;;;8.10;99.90;;;;;;5118129;27;20050;-67
2023/10/20 08:00:46;;;;;;;9.38;6.90;;;8.20;99.90;;;;;;5117714;27;20047;-65
2023/10/20 08:03:12;;;;;;;9.23;7.80;;;8.00;99.90;;;;;;5112307;28;20043;-66
2023/10/20 08:05:39;;;;;;;9.88;7.15;;;8.20;99.90;;;;;;5111858;27;20115;-64
2023/10/20 08:08:06;;;;;;;11.23;7.22;;;8.20;99.90;;;;;;5117717;27;20043;-66
2023/10/20 08:10:33;;;;;;;9.90;6.93;;;8.00;99.90;;;;;;5117625;27;20047;-67
2023/10/20 08:12:59;;;;;;;10.13;6.43;;;8.00;99.90;;;;;;5117826;27;20047;-64
2023/10/20 08:15:27;;;;;;;8.85;6.90;;;8.00;99.90;;;;;;5105076;28;20104;-65
2023/10/20 08:17:55;;;;;;;9.32;7.57;;;8.20;99.90;;;;;;5097464;28;20340;-65
2023/10/20 08:20:21;;;;;;;11.52;7.78;;;8.00;99.90;;;;;;5097215;28;20085;-67
2023/10/20 08:22:48;;;;;;;9.77;7.43;;;8.20;99.90;;;;;;5097381;28;20055;-66
2023/10/20 08:25:15;;;;;;;9.15;6.95;;;8.20;99.90;;;;;;5108657;27;20070;-66
2023/10/20 08:27:44;;;;;;;7.57;6.65;;;8.20;99.90;;;;;;5117775;27;20043;-67
2023/10/20 08:30:11;;;;;;;8.77;7.75;;;8.20;99.90;;;;;;5117717;27;20051;-66
2023/10/20 08:32:38;;;;;;;7.40;6.60;;;8.00;99.90;;;;;;5117685;27;20066;-65
2023/10/20 08:35:08;;;;;;;7.93;7.10;;;8.20;99.90;;;;;;5107558;28;20048;-64
2023/10/20 08:37:35;;;;;;;9.23;8.25;;;8.20;99.90;;;;;;5096368;28;20044;-65
2023/10/20 08:40:02;;;;;;;6.75;6.00;;;8.00;99.90;;;;;;5096788;28;20063;-65
2023/10/20 08:42:32;;;;;;;7.28;5.72;;;8.10;99.90;;;;;;5096628;28;20058;-64
2023/10/20 08:44:58;;;;;;;6.15;5.15;;;8.20;99.90;;;;;;5105408;27;20054;-64
2023/10/20 08:47:25;;;;;;;5.82;5.22;;;7.90;99.90;;;;;;5117384;27;20112;-64
2023/10/20 08:49:52;;;;;;;6.03;5.03;;;8.10;99.90;;;;;;5116693;27;20054;-69
2023/10/20 08:52:18;;;;;;;5.63;5.00;;;8.10;99.90;;;;;;5117217;27;20062;-65
2023/10/20 08:54:47;;;;;;;5.18;4.50;;;8.10;99.90;;;;;;5110588;28;20344;-64
2023/10/20 08:57:14;;;;;;;6.75;5.90;;;7.90;99.90;;;;;;5079737;28;20043;-64
2023/10/20 08:59:50;;;;;;;6.10;4.45;;;8.00;99.90;;;;;;5096218;28;20043;-66
2023/10/20 09:02:17;;;;;;;5.60;5.03;;;8.00;99.90;;;;;;5080173;28;20414;-64
2023/10/20 09:04:43;;;;;;;6.35;4.50;;;8.20;99.90;;;;;;5107936;28;20050;-66
2023/10/20 09:07:16;;;;;;;5.22;4.72;;;8.00;99.90;;;;;;5096311;28;20055;-64
2023/10/20 09:09:43;;;;;;;5.10;3.92;;;7.90;99.90;;;;;;5096184;28;20120;-64
2023/10/20 09:12:11;;;;;;;5.13;3.90;;;8.20;99.90;;;;;;5096571;28;20047;-64
2023/10/20 09:14:41;;;;;;;4.32;3.92;;;8.00;99.90;;;;;;5101172;27;20494;-64
2023/10/20 09:17:10;;;;;;;4.47;3.97;;;8.00;99.90;;;;;;5116798;27;20057;-65
2023/10/20 09:19:36;;;;;;;5.35;4.03;;;8.10;99.90;;;;;;5115957;27;20043;-64
2023/10/20 09:22:03;;;;;;;6.00;5.07;;;8.10;99.90;;;;;;5116526;27;20039;-65
2023/10/20 09:24:34;;;;;;;4.50;3.97;;;8.00;99.90;;;;;;5112164;28;20058;-65
2023/10/20 09:27:01;;;;;;;3.95;3.10;;;8.00;99.90;;;;;;5096115;28;20051;-66
2023/10/20 09:29:31;;;;;;;4.53;3.53;;;8.20;99.90;;;;;;5095670;28;20059;-64
2023/10/20 09:31:59;;;;;;;4.10;3.70;;;8.10;99.90;;;;;;5096239;28;20056;-66
2023/10/20 09:34:26;;;;;;;3.67;3.35;;;7.90;99.90;;;;;;5082780;27;20047;-65
2023/10/20 09:36:53;;;;;;;4.30;3.28;;;8.00;99.90;;;;;;5112510;28;20146;-66
2023/10/20 09:39:37;;;;;;;4.68;3.03;;;7.90;99.90;;;;;;5079391;28;20368;-68
2023/10/20 09:42:05;;;;;;;4.10;3.47;;;8.10;99.90;;;;;;5095343;28;20160;-64
2023/10/20 09:44:41;;;;;;;3.35;3.03;;;8.20;99.90;;;;;;5088247;28;20056;-65
2023/10/20 09:47:22;;;;;;;4.38;2.88;;;8.00;99.90;;;;;;5072994;28;20048;-65
2023/10/20 09:49:51;;;;;;;3.47;2.95;;;8.00;99.90;;;;;;5072700;28;20052;-64
2023/10/20 09:52:19;;;;;;;3.45;2.70;;;7.90;99.90;;;;;;5072784;28;20048;-65
2023/10/20 09:54:50;;;;;;;3.90;2.70;;;8.00;99.90;;;;;;5078783;28;20113;-66
2023/10/20 09:57:19;;;;;;;3.80;3.40;;;8.00;99.90;;;;;;5059860;28;20433;-65
2023/10/20 09:59:52;;;;;;;3.92;3.30;;;8.00;99.90;;;;;;5075950;28;20059;-65
2023/10/20 10:02:29;;;;;;;3.22;2.92;;;7.90;99.90;;;;;;5093057;28;20048;-64
2023/10/20 10:05:00;;;;;;;2.85;2.20;;;7.90;99.90;;;;;;5080472;28;20055;-65
2023/10/20 10:07:33;;;;;;;3.13;2.55;;;7.90;99.90;;;;;;5092507;28;20066;-65
2023/10/20 10:10:00;;;;;;;3.40;2.80;;;7.90;99.90;;;;;;5092529;28;20058;-65
2023/10/20 10:12:27;;;;;;;3.70;2.50;;;7.90;99.90;;;;;;5092342;28;20102;-66
2023/10/20 10:15:07;;;;;;;2.92;2.53;;;7.90;99.90;;;;;;5085506;28;20057;-65
2023/10/20 10:17:48;;;;;;;3.70;2.45;;;7.80;99.90;;;;;;5072172;28;20048;-64
2023/10/20 10:20:26;;;;;;;4.53;2.85;;;7.80;99.90;;;;;;5072504;28;20478;-64
2023/10/20 10:23:00;;;;;;;3.33;2.70;;;7.90;99.90;;;;;;5072327;28;20061;-65
2023/10/20 10:25:36;;;;;;;4.30;2.70;;;7.70;99.90;;;;;;5066747;28;20400;-65
2023/10/20 10:28:17;;;;;;;4.43;2.70;;;7.80;99.90;;;;;;5075551;28;20055;-65
2023/10/20 10:30:48;;;;;;;2.80;2.50;;;7.90;99.90;;;;;;5092540;28;20048;-65
2023/10/20 10:33:21;;;;;;;2.88;2.28;;;7.80;99.90;;;;;;5075725;28;20048;-63
2023/10/20 10:35:47;;;;;;;3.00;2.47;;;7.80;99.90;;;;;;5060862;28;20067;-66
2023/10/20 10:38:21;;;;;;;3.30;2.40;;;7.90;99.90;;;;;;5071443;28;20479;-65
2023/10/20 10:40:51;;;;;;;3.95;2.58;;;7.70;99.90;;;;;;5072064;28;20048;-64
2023/10/20 10:43:19;;;;;;;3.72;2.05;;;7.70;99.90;;;;;;5058415;28;20375;-64
2023/10/20 10:45:52;;;;;;;3.10;2.45;;;7.80;99.90;;;;;;5072462;28;20048;-63
2023/10/20 10:48:22;;;;;;;2.95;2.33;;;7.90;99.90;;;;;;5095299;28;20078;-66
2023/10/20 10:50:49;;;;;;;2.85;2.30;;;7.70;99.90;;;;;;5095246;28;20066;-66
2023/10/20 10:53:15;;;;;;;2.58;2.30;;;7.90;99.90;;;;;;5095646;28;20055;-64
2023/10/20 10:55:42;;;;;;;3.47;2.50;;;7.80;99.90;;;;;;5081431;28;20052;-65
2023/10/20 10:58:12;;;;;;;3.08;2.22;;;7.70;99.90;;;;;;5075065;28;20048;-64
2023/10/20 11:00:40;;;;;;;3.47;2.53;;;7.80;99.90;;;;;;5074937;28;20056;-65
2023/10/20 11:03:08;;;;;;;3.90;2.08;;;7.70;99.90;;;;;;5079517;28;20047;-65
2023/10/20 11:05:35;;;;;;;2.58;2.38;;;7.80;99.90;;;;;;5065900;28;20044;-65
2023/10/20 11:08:07;;;;;;;2.08;1.88;;;7.80;99.90;;;;;;5075221;28;20060;-67
2023/10/20 11:10:37;;;;;;;2.60;1.92;;;7.80;99.90;;;;;;5091785;28;20139;-65
2023/10/20 11:13:08;;;;;;;2.17;1.85;;;7.60;99.90;;;;;;5058597;28;20052;-64
2023/10/20 11:15:35;;;;;;;2.10;1.73;;;7.80;99.90;;;;;;5070286;28;20055;-65
2023/10/20 11:18:06;;;;;;;2.40;2.05;;;7.60;99.90;;;;;;5094946;28;20455;-65
2023/10/20 11:20:36;;;;;;;2.30;1.67;;;7.60;99.90;;;;;;5094933;28;20040;-67
2023/10/20 11:23:04;;;;;;;2.20;1.52;;;7.70;99.90;;;;;;5078904;28;20108;-64
2023/10/20 11:25:30;;;;;;;2.38;1.77;;;7.80;99.90;;;;;;5083205;28;20051;-64
2023/10/20 11:27:57;;;;;;;2.47;1.52;;;7.60;99.90;;;;;;5075976;28;20052;-64
2023/10/20 11:30:29;;;;;;;2.30;1.90;;;7.80;99.90;;;;;;5062312;28;20412;-66
2023/10/20 11:32:55;;;;;;;2.55;1.60;;;7.80;99.90;;;;;;5079202;28;20056;-65
2023/10/20 11:35:24;;;;;;;3.42;1.83;;;7.60;99.90;;;;;;5088542;28;20523;-65
2023/10/20 11:37:54;;;;;;;2.60;1.33;;;7.90;99.90;;;;;;5098748;28;20112;-66
2023/10/20 11:40:21;;;;;;;2.08;1.42;;;7.80;99.90;;;;;;5098765;28;20060;-66
2023/10/20 11:42:48;;;;;;;2.40;1.70;;;7.60;99.90;;;;;;5099132;28;20055;-65
2023/10/20 11:45:15;;;;;;;1.63;1.42;;;7.80;99.90;;;;;;5089473;28;20097;-64
2023/10/20 11:47:42;;;;;;;2.00;1.80;;;7.60;99.90;;;;;;5094541;28;20063;-65
2023/10/20 11:50:10;;;;;;;1.75;1.55;;;7.60;99.90;;;;;;5081552;28;20051;-64
2023/10/20 11:52:38;;;;;;;1.80;1.17;;;7.70;99.90;;;;;;5099021;28;20100;-65
2023/10/20 11:55:11;;;;;;;1.48;1.30;;;7.50;99.90;;;;;;5090367;28;20056;-66
2023/10/20 11:57:38;;;;;;;2.40;1.70;;;7.70;99.90;;;;;;5061736;28;20494;-66
2023/10/20 12:00:09;;;;;;;3.05;1.70;;;7.60;99.90;;;;;;5083586;28;20047;-65
2023/10/20 12:02:38;;;;;;;2.33;1.30;;;7.60;99.90;;;;;;5098029;28;20044;-66
2023/10/20 12:05:05;;;;;;;2.00;1.42;;;7.60;99.90;;;;;;5076701;28;20050;-65
2023/10/20 12:07:32;;;;;;;1.52;1.20;;;7.50;99.90;;;;;;5063710;28;20052;-65
2023/10/20 12:09:59;;;;;;;1.55;1.15;;;7.50;99.90;;;;;;5077805;28;20070;-65
2023/10/20 12:12:25;;;;;;;2.55;1.23;;;7.50;99.90;;;;;;5077676;28;20460;-65
2023/10/20 12:14:51;;;;;;;1.50;1.23;;;7.40;99.90;;;;;;5091576;28;20052;-66
2023/10/20 12:17:18;;;;;;;1.15;1.05;;;7.60;99.90;;;;;;5094963;28;20044;-68
2023/10/20 12:19:44;;;;;;;2.95;1.48;;;7.60;99.90;;;;;;5096846;28;20035;-67
2023/10/20 12:22:11;;;;;;;1.58;1.30;;;7.60;99.90;;;;;;5097922;28;20051;-67
2023/10/20 12:24:37;;;;;;;1.67;1.30;;;7.60;99.90;;;;;;5096962;28;20374;-64
2023/10/20 12:27:03;;;;;;;1.60;1.05;;;7.60;99.90;;;;;;5097048;28;20066;-65
2023/10/20 12:29:30;;;;;;;1.90;1.42;;;7.40;99.90;;;;;;5097401;28;20055;-64
2023/10/20 12:31:58;;;;;;;1.13;1.02;;;7.50;99.90;;;;;;5097956;28;20055;-65
2023/10/20 12:34:25;;;;;;;3.03;1.30;;;7.60;99.90;;;;;;5097019;28;20051;-65
2023/10/20 12:36:51;;;;;;;2.20;1.40;;;7.60;99.90;;;;;;5097899;28;20101;-66
2023/10/20 12:39:18;;;;;;;1.40;1.30;;;7.50;99.90;;;;;;5080397;28;20047;-66
2023/10/20 12:41:44;;;;;;;1.88;1.23;;;7.40;99.90;;;;;;5097932;28;20368;-65
2023/10/20 12:44:11;;;;;;;0.95;0.90;;;7.60;99.90;;;;;;5096904;28;20335;-66
2023/10/20 12:46:37;;;;;;;1.70;1.55;;;7.50;99.90;;;;;;5076410;28;20058;-66
2023/10/20 12:49:06;;;;;;;2.38;1.45;;;7.40;99.90;;;;;;5097007;28;20059;-64
2023/10/20 12:51:33;;;;;;;2.00;1.33;;;7.40;99.90;;;;;;5079763;28;20048;-64
2023/10/20 12:54:01;;;;;;;1.08;0.98;;;7.40;99.90;;;;;;5097482;28;20060;-65
2023/10/20 12:56:28;;;;;;;1.55;1.13;;;7.40;99.90;;;;;;5096304;28;20423;-64
2023/10/20 12:58:54;;;;;;;2.15;1.30;;;7.40;99.90;;;;;;5097434;28;20439;-65
2023/10/20 13:01:21;;;;;;;1.63;1.20;;;7.40;99.90;;;;;;5097478;28;20050;-64
2023/10/20 13:03:48;;;;;;;1.63;1.00;;;7.60;99.90;;;;;;5087424;28;20380;-65
2023/10/20 13:06:15;;;;;;;1.40;1.05;;;7.40;99.90;;;;;;5077143;28;20054;-64
2023/10/20 13:08:45;;;;;;;1.52;1.20;;;7.40;99.90;;;;;;5097221;28;20059;-65
2023/10/20 13:11:14;;;;;;;1.90;1.45;;;7.50;99.90;;;;;;5097080;28;20060;-65
2023/10/20 13:13:41;;;;;;;1.67;1.42;;;7.30;99.90;;;;;;5097358;28;20062;-67
2023/10/20 13:16:08;;;;;;;1.90;1.55;;;7.40;99.90;;;;;;5080951;28;20059;-65
2023/10/20 13:18:38;;;;;;;1.83;1.27;;;7.40;99.90;;;;;;5076659;28;20052;-65
2023/10/20 13:21:07;;;;;;;2.55;1.40;;;7.30;99.90;;;;;;5060182;28;20051;-64
2023/10/20 13:23:33;;;;;;;1.40;1.30;;;7.40;99.90;;;;;;5066824;28;20048;-65
2023/10/20 13:26:04;;;;;;;1.60;1.23;;;7.40;99.90;;;;;;5096186;28;20051;-64